Current Weather

Chicago O'hare International

Chicago O'hare International, Illinois (KORD)

Report from: Monday, May 23, 2022 1:51 AM CDT
Current time: Monday, May 23, 2022 3:00 AM CDT

Nearby weather
Weather history
Weather forecast

Temperature10.6°C (51.1°F)
Dew point2.2°C (36.0°F)
Winds 4 kts (2.1 m/s, 4.6 mph) East (80°)
Visibility10 mi. (16.1 km)
Clouds Ceiling: Broken clouds 25,000 ft. (7,620 m)
Altimeter30.35 in.Hg (1028 mB)
Relative humidity56 %
Density altitude-907 ft. (-277 m)
Sea-level pressure102.8 kPa (1028 mB, 30.35 in.Hg)
Remarks Automated weather observing station with precipitation discriminator
Flight conditions Visual Meteorological Conditions
Raw dataKORD 230651Z 08004KT 10SM BKN250 11/02 A3035 RMK AO2 SLP279 T01060022
An error has occurred. This application may no longer respond until reloaded. Reload 🗙